Glew, Matthew
United StatesManBorn 19792007 – 2024Runner id 104115
Events
71
2007 – 2024
Best pace
9.288
km/h · 2009
Best finish
3rd
of 8 · 2009
Distance raced
4,074
km · splits not double-counted
Pace over time
km/h · higher is faster
Pace over time: 71 races from 2007 to 2024, ranging from 3.81 to 9.29 kilometres per hour, where higher is faster. A second, age-graded series is drawn above it; the gap between the two is the age credit.
- Actual pace
- Age-graded pace
Results
| Date | Event | Distance | Result | Pace km/h | Placing |
|---|---|---|---|---|---|
| 2007-06-09 | Lake Youngs UltraUnited States | 28.8mi | 5:19:00 h | 8.718 | 43/62 |
| 2008-03-15 | Chuckanut 50KUnited States | 50km | 7:32:30 h | 6.630 | 269/294 |
| 2008-05-17 | Watershed Preserve 12 Hr Trail RaceUnited States | 12h | 69.201 km | 5.767 | 30/53 |
| 2008-06-14 | Lake Youngs UltraUnited States | 28.8mi | 5:13:00 h | 8.885 | 58/95 |
| 2008-09-06 | 50km | 6:24:44 h | 7.798 | 26/36 | |
| 2008-10-11 | 50mi | 10:11:37 h | 7.894 | 53/83 | |
| 2008-10-20 | Baker Lake 50K Ultra Trail RunUnited States | 50km | 7:12:13 h | 6.941 | 58/86 |
| 2008-11-01 | Ron Herzog 50KUnited States | 50km | 5:56:00 h | 8.427 | 15/30 |
| 2008-11-15 | 50mi | 9:17:19 h | 8.663 | 19/32 | |
| 2009-01-25 | Cedar River Yours TrulyUnited States | 50km | 5:47:00 h | 8.646 | 3/8 |
| 2009-02-21 | 50km | 6:53:11 h | 7.261 | 114/118 | |
| 2009-03-28 | 50km | 5:23:00 h | 9.288 | 10/19 | |
| 2009-04-19 | 50mi | 9:27:00 h | 8.515 | 39/48 | |
| 2009-05-16 | Watershed Preserve 12 Hr Trail RaceUnited States | 12h | 69.201 km | 5.767 | 36/66 |
| 2009-05-24 | 50km | 6:47:05 h | 7.369 | 61/67 | |
| 2009-09-12 | 50km | 7:03:30 h | 7.084 | 29/35 | |
| 2009-10-10 | 50mi | 10:13:55 h | 7.864 | 48/84 | |
| 2009-11-07 | Ron Herzog 50KUnited States | 50km | 6:09:40 h | 8.115 | 23/31 |
| 2010-01-23 | Pigtails Run 50KUnited States | 50km | 5:33:05 h | 9.007 | 45/80 |
| 2010-04-03 | 50km | 6:04:40 h | 8.227 | 15/22 | |
| 2010-04-11 | 50mi | 9:23:30 h | 8.568 | 28/46 | |
| 2010-05-15 | 12h | 81.336 km | 6.778 | 36/80 | |
| 2010-06-12 | 28.8mi | 5:24:00 h | 8.583 | 40/61 | |
| 2010-06-26 | 50km | 6:23:11 h | 7.829 | 27/40 | |
| 2010-07-31 | 50mi | 14:00:13 h | 5.746 | 190/194 | |
| 2010-10-09 | 50mi | 9:39:31 h | 8.331 | 49/87 | |
| 2010-11-06 | Ron Herzog 50KUnited States | 50km | 6:57:50 h | 7.180 | 32/35 |
| 2011-01-22 | Pigtails Run 50KUnited States | 50km | 6:23:44 h | 7.818 | 68/84 |
| 2011-03-26 | 50km | 6:02:00 h | 8.287 | 11/17 | |
| 2011-04-30 | 55km | 8:30:26 h | 6.465 | 43/49 | |
| 2011-06-11 | 28.8mi | 5:30:03 h | 8.426 | 36/53 | |
| 2011-06-18 | 50km | 6:48:39 h | 7.341 | 38/55 | |
| 2011-09-17 | 50km | 8:29:45 h | 5.885 | 70/80 | |
| 2011-10-01 | 50km | 7:29:18 h | 6.677 | 88/122 | |
| 2011-10-08 | 50mi | 10:23:47 h | 7.740 | 53/74 | |
| 2012-04-22 | 50mi | 11:05:23 h | 7.256 | 32/39 | |
| 2012-06-09 | 28.8mi | 5:27:50 h | 8.483 | 28/43 | |
| 2012-06-30 | 50km | 7:08:04 h | 7.008 | 46/55 | |
| 2012-10-13 | 50mi | 11:10:39 h | 7.199 | 77/98 | |
| 2013-03-23 | 12h | 51.499 km | 4.292 | 57/74 | |
| 2013-06-08 | 50km | 6:14:07 h | 8.019 | 36/48 | |
| 2013-10-12 | 50mi | 11:11:58 h | 7.185 | 86/99 | |
| 2014-03-22 | 12h | 51.499 km | 4.292 | 65/98 | |
| 2014-06-07 | 50km | 7:52:27 h | 6.350 | 64/67 | |
| 2014-10-04 | 50km | 8:56:55 h | 5.587 | 166/178 | |
| 2015-01-31 | Lake Youngs Nuts RunUnited States | 50km | 5:56:50 h | 8.407 | 30/47 |
| 2015-03-14 | 12h | 51.499 km | 4.292 | 40/75 | |
| 2015-04-26 | 50km | 6:09:21 h | 8.122 | 49/87 | |
| 2015-10-10 | 50mi | 11:57:18 h | 6.731 | 54/63 | |
| 2016-01-09 | 50km | 6:30:30 h | 7.682 | 60/73 |
Showing 1–50 of 71